createdAt,value
2022-12-08T00:01:33.761Z,1.42
2022-12-08T00:04:03.793Z,1.51
2022-12-08T00:06:58.972Z,1.43
2022-12-08T00:09:38.633Z,1.54
2022-12-08T00:12:16.803Z,1.54
2022-12-08T00:14:46.805Z,1.56
2022-12-08T00:17:16.703Z,1.47
2022-12-08T00:19:45.169Z,1.42
2022-12-08T00:22:14.863Z,1.48
2022-12-08T00:24:45.679Z,1.39
2022-12-08T00:27:15.919Z,1.47
2022-12-08T00:29:44.999Z,1.50
2022-12-08T00:32:13.217Z,1.41
2022-12-08T00:34:41.197Z,1.57
2022-12-08T00:37:09.343Z,1.48
2022-12-08T00:39:37.242Z,1.33
2022-12-08T00:42:14.366Z,1.40
2022-12-08T00:44:44.080Z,1.50
2022-12-08T00:47:13.498Z,1.53
2022-12-08T00:49:41.993Z,1.48
2022-12-08T00:52:10.173Z,1.50
2022-12-08T00:54:38.062Z,1.47
2022-12-08T00:57:05.930Z,1.46
2022-12-08T00:59:33.772Z,1.35
2022-12-08T01:02:01.642Z,1.32
2022-12-08T01:04:29.523Z,1.31
2022-12-08T01:06:57.428Z,1.34
2022-12-08T01:09:25.253Z,1.45
2022-12-08T01:11:53.265Z,1.41
2022-12-08T01:14:21.252Z,1.40
2022-12-08T01:16:49.309Z,1.42
2022-12-08T01:19:17.647Z,1.51
2022-12-08T01:21:46.411Z,1.44
2022-12-08T01:24:17.652Z,1.40
2022-12-08T01:26:46.097Z,1.30
2022-12-08T01:29:13.936Z,1.27
2022-12-08T01:31:41.886Z,1.32
2022-12-08T01:34:11.482Z,1.36
2022-12-08T01:36:39.615Z,1.26
2022-12-08T01:39:10.676Z,1.22
2022-12-08T01:41:39.284Z,1.23
2022-12-08T01:44:27.288Z,1.29
2022-12-08T01:46:56.494Z,1.24
2022-12-08T01:49:27.673Z,1.19
2022-12-08T01:52:23.863Z,1.26
2022-12-08T01:55:03.978Z,1.23
2022-12-08T01:57:40.589Z,1.30
2022-12-08T02:00:13.056Z,1.36
2022-12-08T02:02:54.618Z,1.33
2022-12-08T02:05:25.915Z,1.36
2022-12-08T02:07:55.732Z,1.36
2022-12-08T02:10:24.982Z,1.37
2022-12-08T02:12:55.996Z,1.38
2022-12-08T02:15:43.920Z,1.30
2022-12-08T02:18:30.157Z,1.31
2022-12-08T02:21:08.612Z,1.38
2022-12-08T02:24:10.425Z,1.37
2022-12-08T02:26:56.826Z,1.29
2022-12-08T02:29:39.888Z,1.27
2022-12-08T02:32:16.802Z,1.23
2022-12-08T02:34:53.453Z,1.27
2022-12-08T02:37:27.062Z,1.24
2022-12-08T02:40:16.368Z,1.31
2022-12-08T02:42:49.165Z,1.32
2022-12-08T02:45:39.354Z,1.31
2022-12-08T02:48:09.347Z,1.37
2022-12-08T02:50:37.301Z,1.32
2022-12-08T02:55:47.311Z,1.36
2022-12-08T02:58:36.646Z,1.42
2022-12-08T03:01:20.279Z,1.33
2022-12-08T03:04:03.441Z,1.28
2022-12-08T03:06:36.213Z,1.23
2022-12-08T03:09:35.236Z,1.29
2022-12-08T03:12:13.304Z,1.25
2022-12-08T03:14:46.242Z,1.30
2022-12-08T03:17:16.052Z,1.32
2022-12-08T03:19:46.282Z,1.30
2022-12-08T03:22:17.263Z,1.32
2022-12-08T03:24:46.973Z,1.32
2022-12-08T03:27:20.230Z,1.33
2022-12-08T03:29:50.795Z,1.33
2022-12-08T03:32:44.524Z,1.23
2022-12-08T03:35:16.704Z,1.19
2022-12-08T03:37:44.839Z,1.25
2022-12-08T03:40:16.235Z,1.38
2022-12-08T03:42:44.158Z,1.48
2022-12-08T03:45:12.548Z,1.46
2022-12-08T03:47:40.445Z,1.25
2022-12-08T03:50:08.603Z,1.09
2022-12-08T03:52:36.479Z,1.11
2022-12-08T03:55:04.781Z,0.96
2022-12-08T03:57:32.682Z,0.86
2022-12-08T04:00:00.806Z,0.79
2022-12-08T04:02:28.719Z,0.61
2022-12-08T04:04:56.699Z,0.63
2022-12-08T04:07:24.577Z,0.56
2022-12-08T04:09:52.514Z,0.55
2022-12-08T04:12:20.414Z,0.52
2022-12-08T04:14:48.287Z,0.62
2022-12-08T04:17:16.130Z,0.62
2022-12-08T04:19:44.005Z,0.60
2022-12-08T04:22:11.941Z,0.57
2022-12-08T04:24:39.737Z,0.44
2022-12-08T04:27:07.515Z,0.52
2022-12-08T04:29:35.479Z,0.61
2022-12-08T04:32:03.491Z,0.68
2022-12-08T04:34:31.485Z,0.59
2022-12-08T04:36:59.304Z,0.47
2022-12-08T04:39:27.120Z,0.62
2022-12-08T04:41:54.932Z,0.61
2022-12-08T04:44:22.903Z,0.59
2022-12-08T04:46:50.849Z,0.64
2022-12-08T04:49:18.801Z,0.66
2022-12-08T04:51:46.725Z,0.60
2022-12-08T04:54:14.657Z,0.60
2022-12-08T04:56:42.545Z,0.68
2022-12-08T04:59:10.403Z,0.67
2022-12-08T05:01:38.374Z,0.66
2022-12-08T05:04:09.350Z,0.58
2022-12-08T05:06:37.318Z,0.69
2022-12-08T05:09:05.232Z,0.75
2022-12-08T05:11:33.146Z,0.73
2022-12-08T05:14:00.913Z,0.69
2022-12-08T05:16:28.819Z,0.79
2022-12-08T05:18:56.751Z,0.84
2022-12-08T05:21:24.609Z,0.92
2022-12-08T05:23:52.437Z,1.02
2022-12-08T05:26:20.455Z,1.06
2022-12-08T05:28:48.278Z,1.13
2022-12-08T05:31:17.681Z,1.17
2022-12-08T05:33:45.917Z,1.15
2022-12-08T05:36:15.487Z,1.30
2022-12-08T05:38:44.448Z,1.37
2022-12-08T05:41:17.842Z,1.21
2022-12-08T05:43:46.179Z,1.19
2022-12-08T05:46:15.136Z,1.16
2022-12-08T05:48:43.520Z,1.09
2022-12-08T05:51:23.540Z,1.00
2022-12-08T05:53:52.691Z,1.06
2022-12-08T05:56:21.560Z,1.02
2022-12-08T05:58:50.249Z,1.05
2022-12-08T06:01:23.925Z,1.00
2022-12-08T06:03:52.715Z,1.07
2022-12-08T06:06:20.905Z,1.11
2022-12-08T06:08:49.511Z,1.14
2022-12-08T06:11:23.159Z,1.23
2022-12-08T06:13:51.334Z,1.22
2022-12-08T06:16:19.269Z,1.22
2022-12-08T06:18:47.285Z,1.25
2022-12-08T06:21:16.324Z,1.31
2022-12-08T06:23:44.299Z,1.38
2022-12-08T06:26:14.138Z,1.39
2022-12-08T06:28:43.049Z,1.34
2022-12-08T06:31:31.204Z,1.46
2022-12-08T06:33:59.327Z,1.47
2022-12-08T06:36:29.180Z,1.42
2022-12-08T06:38:57.192Z,1.38
2022-12-08T06:41:25.033Z,1.33
2022-12-08T06:43:55.506Z,1.33
2022-12-08T06:46:23.793Z,1.32
2022-12-08T06:48:51.744Z,1.36
2022-12-08T06:51:22.171Z,1.38
2022-12-08T06:53:50.879Z,1.49
2022-12-08T06:56:20.325Z,1.50
2022-12-08T06:58:52.367Z,1.55
2022-12-08T07:01:20.950Z,1.61
2022-12-08T07:03:48.836Z,1.61
2022-12-08T07:06:20.802Z,1.67
2022-12-08T07:08:48.756Z,1.65
2022-12-08T07:11:21.539Z,1.62
2022-12-08T07:13:50.791Z,1.58
2022-12-08T07:16:18.945Z,1.67
2022-12-08T07:18:46.990Z,1.65
2022-12-08T07:21:15.798Z,1.71
2022-12-08T07:23:46.926Z,1.68
2022-12-08T07:26:14.791Z,1.76
2022-12-08T07:28:43.020Z,1.76
2022-12-08T07:31:23.121Z,1.79
2022-12-08T07:33:52.290Z,1.82
2022-12-08T07:36:20.186Z,1.88
2022-12-08T07:38:49.453Z,1.95
2022-12-08T07:41:23.228Z,1.88
2022-12-08T07:43:53.662Z,2.10
2022-12-08T07:46:24.361Z,2.13
2022-12-08T07:48:53.866Z,2.20
2022-12-08T07:51:21.738Z,2.18
2022-12-08T07:53:54.144Z,2.37
2022-12-08T07:56:23.359Z,2.51
2022-12-08T07:58:51.401Z,2.56
2022-12-08T08:01:25.686Z,2.65
2022-12-08T08:03:55.163Z,2.69
2022-12-08T08:06:23.941Z,2.76
2022-12-08T08:08:51.783Z,2.75
2022-12-08T08:11:21.540Z,2.87
2022-12-08T08:13:50.986Z,3.04
2022-12-08T08:16:19.773Z,3.30
2022-12-08T08:18:49.838Z,3.82
2022-12-08T08:21:44.457Z,4.42
2022-12-08T08:24:07.811Z,4.75
2022-12-08T08:26:37.011Z,4.57
2022-12-08T08:29:04.944Z,4.37
2022-12-08T08:31:33.005Z,4.21
2022-12-08T08:34:05.139Z,4.33
2022-12-08T08:36:33.412Z,4.44
2022-12-08T08:39:01.273Z,4.65
2022-12-08T08:41:29.223Z,4.62
2022-12-08T08:43:57.111Z,4.50
2022-12-08T08:46:25.140Z,4.33
2022-12-08T08:48:53.155Z,4.39
2022-12-08T08:51:21.002Z,4.47
2022-12-08T08:53:48.932Z,4.42
2022-12-08T08:56:21.923Z,4.65
2022-12-08T08:58:51.000Z,4.71
2022-12-08T09:01:23.291Z,4.94
2022-12-08T09:03:51.947Z,5.27
2022-12-08T09:06:20.869Z,5.54
2022-12-08T09:08:48.933Z,5.70
2022-12-08T09:11:18.759Z,5.98
2022-12-08T09:13:50.989Z,6.11
2022-12-08T09:16:20.012Z,6.22
2022-12-08T09:18:51.345Z,6.12
2022-12-08T09:21:23.172Z,6.11
2022-12-08T09:23:53.153Z,6.31
2022-12-08T09:26:22.709Z,6.81
2022-12-08T09:28:51.940Z,7.13
2022-12-08T09:31:22.009Z,7.00
2022-12-08T09:33:53.471Z,7.11
2022-12-08T09:36:21.750Z,7.05
2022-12-08T09:38:51.234Z,6.85
2022-12-08T09:41:50.093Z,7.33
2022-12-08T09:44:33.321Z,7.33
2022-12-08T09:47:03.835Z,7.11
2022-12-08T09:49:42.004Z,7.01
2022-12-08T09:52:25.637Z,7.04
2022-12-08T09:54:54.095Z,7.14
2022-12-08T09:57:25.124Z,7.30
2022-12-08T10:00:00.062Z,7.32
2022-12-08T10:02:31.095Z,7.28
2022-12-08T10:04:59.692Z,7.21
2022-12-08T10:07:37.070Z,7.31
2022-12-08T10:10:36.886Z,7.35
2022-12-08T10:13:17.352Z,7.43
2022-12-08T10:15:59.895Z,7.33
2022-12-08T10:18:30.751Z,7.37
2022-12-08T10:21:16.351Z,7.51
2022-12-08T10:23:49.859Z,7.73
2022-12-08T10:26:20.562Z,7.68
2022-12-08T10:28:49.764Z,7.63
2022-12-08T10:31:21.746Z,7.46
2022-12-08T10:34:10.553Z,7.54
2022-12-08T10:36:50.884Z,7.70
2022-12-08T10:39:40.484Z,7.83
2022-12-08T10:42:10.447Z,7.75
2022-12-08T10:44:56.295Z,7.86
2022-12-08T10:47:26.997Z,7.91
2022-12-08T10:50:08.613Z,8.41
2022-12-08T10:52:41.372Z,8.41
2022-12-08T10:55:20.685Z,8.52
2022-12-08T10:57:49.587Z,9.04
2022-12-08T11:00:23.800Z,8.76
2022-12-08T11:03:04.029Z,8.63
2022-12-08T11:05:35.928Z,8.73
2022-12-08T11:08:06.047Z,8.57
2022-12-08T11:10:37.430Z,8.86
2022-12-08T11:13:13.901Z,9.02
2022-12-08T11:15:45.512Z,8.81
2022-12-08T11:18:27.057Z,8.67
2022-12-08T11:21:02.557Z,8.50
2022-12-08T11:23:30.811Z,8.03
2022-12-08T11:26:09.945Z,7.47
2022-12-08T11:28:44.944Z,7.45
2022-12-08T11:31:47.657Z,8.09
2022-12-08T11:34:33.994Z,7.87
2022-12-08T11:37:12.123Z,8.11
2022-12-08T11:39:50.796Z,8.11
2022-12-08T11:43:05.078Z,8.14
2022-12-08T11:45:35.699Z,7.88
2022-12-08T11:48:10.093Z,7.73
2022-12-08T11:50:53.283Z,7.80
2022-12-08T11:53:35.896Z,8.02
2022-12-08T11:56:13.555Z,8.02
2022-12-08T11:58:46.117Z,8.10
2022-12-08T12:01:23.114Z,7.83
2022-12-08T12:04:18.472Z,7.82
2022-12-08T12:06:54.898Z,7.91
2022-12-08T12:10:00.084Z,7.87
2022-12-08T12:12:46.942Z,7.94
2022-12-08T12:15:20.648Z,8.10
2022-12-08T12:17:54.864Z,8.18
2022-12-08T12:20:36.215Z,8.23
2022-12-08T12:23:30.353Z,8.26
2022-12-08T12:26:03.410Z,8.44
2022-12-08T12:28:46.519Z,8.43
2022-12-08T12:31:18.467Z,8.62
2022-12-08T12:33:47.173Z,8.88
2022-12-08T12:36:16.243Z,8.90
2022-12-08T12:39:02.295Z,8.92
2022-12-08T12:41:47.681Z,8.54
2022-12-08T12:45:09.036Z,8.64
2022-12-08T12:51:45.364Z,8.56
2022-12-08T12:54:39.101Z,8.52
2022-12-08T12:57:08.976Z,8.73
2022-12-08T12:59:46.180Z,8.58
2022-12-08T13:02:38.175Z,8.56
2022-12-08T13:05:27.089Z,8.78
2022-12-08T13:08:02.559Z,8.79
2022-12-08T13:11:13.494Z,8.53
2022-12-08T13:14:01.394Z,8.57
2022-12-08T13:16:41.207Z,8.64
2022-12-08T13:19:16.579Z,8.92
2022-12-08T13:21:47.111Z,8.77
2022-12-08T13:24:36.593Z,8.73
2022-12-08T13:27:16.876Z,8.88
2022-12-08T13:30:31.217Z,9.00
2022-12-08T13:33:18.521Z,8.85
2022-12-08T13:35:53.721Z,8.77
2022-12-08T13:38:26.644Z,8.95
2022-12-08T13:40:57.121Z,8.80
2022-12-08T13:44:31.192Z,8.74
2022-12-08T13:58:45.273Z,9.12
2022-12-08T14:01:19.052Z,9.05
2022-12-08T14:04:30.967Z,8.94
2022-12-08T14:06:48.034Z,9.03
2022-12-08T14:09:19.484Z,8.87
2022-12-08T14:11:54.682Z,9.02
2022-12-08T14:14:53.935Z,8.89
2022-12-08T14:17:18.495Z,9.00
2022-12-08T14:20:00.853Z,8.90
2022-12-08T14:22:37.539Z,8.84
2022-12-08T14:25:07.529Z,8.51
2022-12-08T14:27:37.732Z,8.49
2022-12-08T14:30:21.152Z,8.39
2022-12-08T14:33:00.297Z,8.16
2022-12-08T14:35:38.850Z,8.09
2022-12-08T14:38:15.013Z,8.02
2022-12-08T14:40:46.111Z,7.95
2022-12-08T14:43:21.144Z,7.82
2022-12-08T14:45:51.155Z,7.74
2022-12-08T14:48:23.916Z,7.52
2022-12-08T14:51:03.625Z,7.56
2022-12-08T14:53:40.116Z,7.55
2022-12-08T14:56:31.738Z,7.48
2022-12-08T14:59:13.327Z,7.51
2022-12-08T15:01:43.260Z,7.42
2022-12-08T15:04:20.588Z,7.22
2022-12-08T15:07:25.584Z,7.19
2022-12-08T15:10:15.100Z,7.14
2022-12-08T15:13:01.313Z,7.15
2022-12-08T15:15:31.087Z,7.10
2022-12-08T15:18:18.028Z,7.00
2022-12-08T15:20:54.308Z,6.93
2022-12-08T15:23:31.950Z,6.84
2022-12-08T15:26:00.120Z,6.88
2022-12-08T15:28:30.524Z,6.74
2022-12-08T15:31:00.582Z,6.76
2022-12-08T15:33:29.024Z,6.73
2022-12-08T15:35:57.358Z,6.74
2022-12-08T15:38:31.939Z,6.66
2022-12-08T15:41:01.190Z,6.64
2022-12-08T15:43:31.784Z,6.56
2022-12-08T15:46:00.570Z,6.54
2022-12-08T15:48:30.074Z,6.50
2022-12-08T15:50:58.944Z,6.51
2022-12-08T15:53:27.132Z,6.52
2022-12-08T15:56:26.300Z,6.41
2022-12-08T15:58:59.232Z,6.32
2022-12-08T16:01:27.402Z,6.27
2022-12-08T16:09:42.694Z,6.07
2022-12-08T16:13:40.324Z,6.04
2022-12-08T16:18:24.258Z,6.05
2022-12-08T16:21:09.625Z,6.06
2022-12-08T16:23:44.693Z,6.09
2022-12-08T16:29:17.363Z,6.14
2022-12-08T16:31:47.400Z,6.20
2022-12-08T16:34:16.983Z,6.23
2022-12-08T16:36:45.606Z,6.22
2022-12-08T16:39:14.953Z,6.33
2022-12-08T16:42:03.043Z,6.38
2022-12-08T16:44:31.937Z,6.40
2022-12-08T16:47:09.860Z,6.38
2022-12-08T16:49:39.910Z,6.34
2022-12-08T16:52:08.034Z,6.33
2022-12-08T16:54:36.120Z,6.32
2022-12-08T16:57:04.035Z,6.29
2022-12-08T16:59:31.981Z,6.24
2022-12-08T17:01:59.791Z,6.23
2022-12-08T17:04:31.995Z,6.22
2022-12-08T17:08:15.007Z,6.33
2022-12-08T17:14:15.259Z,6.28
2022-12-08T17:16:43.906Z,6.25
2022-12-08T17:19:15.520Z,6.27
2022-12-08T17:21:44.719Z,6.29
2022-12-08T17:24:15.859Z,6.31
2022-12-08T17:26:46.461Z,6.52
2022-12-08T17:29:14.173Z,6.61
2022-12-08T17:31:41.926Z,6.66
2022-12-08T17:34:11.481Z,6.65
2022-12-08T17:36:39.478Z,6.65
2022-12-08T17:39:13.366Z,6.54
2022-12-08T17:41:44.285Z,6.53
2022-12-08T17:44:15.005Z,6.50
2022-12-08T17:46:49.076Z,6.50
2022-12-08T17:49:23.621Z,6.45
2022-12-08T17:51:56.247Z,6.49
2022-12-08T17:54:24.519Z,6.55
2022-12-08T17:56:52.536Z,6.47
2022-12-08T17:59:20.334Z,6.43
2022-12-08T18:01:48.061Z,6.54
2022-12-08T18:04:15.868Z,6.50
2022-12-08T18:06:43.718Z,6.53
2022-12-08T18:09:11.430Z,6.43
2022-12-08T18:11:47.471Z,6.53
2022-12-08T18:14:19.136Z,6.45
2022-12-08T18:16:48.830Z,6.47
2022-12-08T18:19:28.287Z,6.39
2022-12-08T18:21:57.050Z,6.36
2022-12-08T18:24:27.123Z,6.47
2022-12-08T18:27:16.480Z,6.48
2022-12-08T18:29:45.316Z,6.52
2022-12-08T18:32:14.766Z,6.53
2022-12-08T18:34:44.284Z,6.52
2022-12-08T18:37:13.867Z,6.55
2022-12-08T18:39:44.249Z,6.51
2022-12-08T18:42:25.282Z,6.57
2022-12-08T18:45:02.312Z,6.59
2022-12-08T18:47:41.401Z,6.57
2022-12-08T18:50:11.861Z,6.54
2022-12-08T18:52:39.789Z,6.62
2022-12-08T18:55:08.266Z,6.69
2022-12-08T18:57:41.656Z,6.50
2022-12-08T19:00:12.391Z,6.55
2022-12-08T19:02:40.602Z,6.49
2022-12-08T19:05:10.369Z,6.35
2022-12-08T19:07:38.707Z,6.27
2022-12-08T19:10:07.729Z,6.36
2022-12-08T19:12:35.569Z,6.35
2022-12-08T19:15:03.974Z,6.39
2022-12-08T19:17:31.880Z,6.32
2022-12-08T19:19:59.789Z,6.28
2022-12-08T19:22:27.714Z,6.27
2022-12-08T19:24:55.498Z,6.15
2022-12-08T19:27:23.465Z,6.32
2022-12-08T19:29:52.828Z,6.28
2022-12-08T19:32:21.789Z,6.29
2022-12-08T19:34:53.290Z,6.35
2022-12-08T19:37:21.337Z,6.25
2022-12-08T19:40:08.229Z,6.26
2022-12-08T19:42:54.777Z,6.24
2022-12-08T19:45:22.994Z,6.44
2022-12-08T19:47:50.697Z,6.40
2022-12-08T19:50:37.522Z,6.37
2022-12-08T19:53:11.182Z,6.38
2022-12-08T19:55:39.918Z,6.30
2022-12-08T19:58:09.024Z,6.47
2022-12-08T20:00:38.612Z,6.37
2022-12-08T20:03:06.504Z,6.34
2022-12-08T20:05:37.963Z,6.33
2022-12-08T20:08:06.992Z,6.31
2022-12-08T20:10:39.100Z,6.40
2022-12-08T20:13:27.220Z,6.37
2022-12-08T20:15:55.124Z,6.20
2022-12-08T20:18:23.106Z,6.40
2022-12-08T20:20:51.563Z,6.34
2022-12-08T20:23:19.277Z,6.28
2022-12-08T20:25:48.700Z,6.36
2022-12-08T20:28:20.073Z,6.50
2022-12-08T20:30:50.020Z,6.65
2022-12-08T20:33:20.114Z,6.62
2022-12-08T20:35:59.080Z,6.36
2022-12-08T20:38:30.123Z,6.19
2022-12-08T20:40:59.198Z,6.27
2022-12-08T20:43:28.266Z,6.36
2022-12-08T20:45:58.251Z,6.40
2022-12-08T20:48:27.239Z,6.42
2022-12-08T20:50:55.691Z,6.54
2022-12-08T20:53:23.475Z,6.09
2022-12-08T20:55:53.057Z,5.87
2022-12-08T20:58:23.532Z,5.87
2022-12-08T21:00:52.933Z,6.12
2022-12-08T21:03:24.320Z,6.15
2022-12-08T21:05:54.630Z,6.10
2022-12-08T21:08:26.177Z,6.04
2022-12-08T21:10:57.482Z,6.13
2022-12-08T21:13:28.844Z,6.05
2022-12-08T21:15:58.560Z,6.04
2022-12-08T21:18:30.402Z,6.17
2022-12-08T21:21:08.019Z,6.16
2022-12-08T21:23:37.040Z,6.10
2022-12-08T21:26:15.091Z,6.27
2022-12-08T21:28:44.437Z,6.37
2022-12-08T21:31:22.731Z,6.51
2022-12-08T21:33:56.049Z,6.55
2022-12-08T21:36:24.506Z,6.24
2022-12-08T21:39:03.098Z,6.24
2022-12-08T21:42:00.957Z,6.33
2022-12-08T21:44:30.035Z,6.45
2022-12-08T21:46:59.087Z,6.56
2022-12-08T21:49:29.491Z,6.59
2022-12-08T21:51:58.573Z,6.53
2022-12-08T21:57:25.129Z,6.64
2022-12-08T21:59:57.328Z,6.63
2022-12-08T22:02:28.235Z,6.47
2022-12-08T22:04:56.474Z,6.59
2022-12-08T22:07:24.465Z,6.59
2022-12-08T22:09:52.346Z,6.64
2022-12-08T22:12:21.533Z,6.59
2022-12-08T22:14:51.208Z,6.61
2022-12-08T22:17:20.283Z,6.51
2022-12-08T22:19:48.236Z,6.62
2022-12-08T22:22:40.407Z,6.76
2022-12-08T22:25:13.739Z,6.73
2022-12-08T22:27:44.399Z,6.63
2022-12-08T22:30:19.333Z,6.59
2022-12-08T22:32:51.557Z,6.68
2022-12-08T22:35:21.519Z,6.48
2022-12-08T22:37:52.098Z,6.56
2022-12-08T22:53:55.522Z,6.55
2022-12-08T22:56:23.795Z,6.65
2022-12-08T22:58:51.770Z,6.77
2022-12-08T23:01:29.986Z,6.76
2022-12-08T23:03:59.481Z,6.70
2022-12-08T23:06:28.709Z,6.69
2022-12-08T23:08:57.229Z,6.53
2022-12-08T23:11:29.721Z,6.63
2022-12-08T23:14:01.041Z,6.54
2022-12-08T23:16:29.604Z,6.60
2022-12-08T23:18:59.146Z,6.55
2022-12-08T23:21:27.254Z,6.52
2022-12-08T23:23:55.136Z,6.54
2022-12-08T23:26:26.888Z,6.63
2022-12-08T23:28:55.104Z,6.61
2022-12-08T23:31:23.735Z,6.62
2022-12-08T23:33:52.005Z,6.51
2022-12-08T23:36:20.939Z,6.53
2022-12-08T23:38:49.035Z,6.51
2022-12-08T23:41:17.240Z,6.50
2022-12-08T23:43:46.844Z,6.40
2022-12-08T23:46:16.895Z,6.49
2022-12-08T23:48:44.783Z,6.48
2022-12-08T23:51:13.349Z,6.58
2022-12-08T23:53:41.682Z,6.61
2022-12-08T23:56:12.720Z,6.62
2022-12-08T23:58:41.661Z,6.67
